sensor_id;sensor_type;location;lat;lon;timestamp;P1;durP1;ratioP1;P2;durP2;ratioP2
71610;SDS011;59459;51.172;6.682;2023-12-14T00:02:09;54.10;;;16.97;;
71610;SDS011;59459;51.172;6.682;2023-12-14T00:04:34;46.67;;;16.23;;
71610;SDS011;59459;51.172;6.682;2023-12-14T00:06:59;46.63;;;16.87;;
71610;SDS011;59459;51.172;6.682;2023-12-14T00:09:25;48.85;;;16.50;;
71610;SDS011;59459;51.172;6.682;2023-12-14T00:11:50;48.67;;;17.67;;
71610;SDS011;59459;51.172;6.682;2023-12-14T00:14:15;49.07;;;18.40;;
71610;SDS011;59459;51.172;6.682;2023-12-14T00:16:40;54.20;;;17.40;;
71610;SDS011;59459;51.172;6.682;2023-12-14T00:19:05;57.90;;;20.47;;
71610;SDS011;59459;51.172;6.682;2023-12-14T00:21:31;53.67;;;17.87;;
71610;SDS011;59459;51.172;6.682;2023-12-14T00:23:56;56.80;;;19.23;;
71610;SDS011;59459;51.172;6.682;2023-12-14T00:26:21;52.43;;;19.13;;
71610;SDS011;59459;51.172;6.682;2023-12-14T00:28:46;56.10;;;17.80;;
71610;SDS011;59459;51.172;6.682;2023-12-14T00:31:12;55.87;;;18.57;;
71610;SDS011;59459;51.172;6.682;2023-12-14T00:33:37;56.53;;;18.33;;
71610;SDS011;59459;51.172;6.682;2023-12-14T00:36:02;59.73;;;19.03;;
71610;SDS011;59459;51.172;6.682;2023-12-14T00:38:27;47.23;;;17.77;;
71610;SDS011;59459;51.172;6.682;2023-12-14T00:40:53;55.60;;;19.50;;
71610;SDS011;59459;51.172;6.682;2023-12-14T00:43:18;47.17;;;17.30;;
71610;SDS011;59459;51.172;6.682;2023-12-14T00:45:43;53.13;;;18.13;;
71610;SDS011;59459;51.172;6.682;2023-12-14T00:48:11;53.95;;;18.52;;
71610;SDS011;59459;51.172;6.682;2023-12-14T00:50:36;53.57;;;17.73;;
71610;SDS011;59459;51.172;6.682;2023-12-14T00:53:01;48.70;;;17.50;;
71610;SDS011;59459;51.172;6.682;2023-12-14T00:55:27;54.77;;;17.00;;
71610;SDS011;59459;51.172;6.682;2023-12-14T00:57:52;51.43;;;17.00;;
71610;SDS011;59459;51.172;6.682;2023-12-14T01:00:18;54.33;;;17.70;;
71610;SDS011;59459;51.172;6.682;2023-12-14T01:02:43;53.08;;;18.33;;
71610;SDS011;59459;51.172;6.682;2023-12-14T01:05:08;44.20;;;15.03;;
71610;SDS011;59459;51.172;6.682;2023-12-14T01:07:33;46.37;;;16.47;;
71610;SDS011;59459;51.172;6.682;2023-12-14T01:09:59;44.93;;;15.60;;
71610;SDS011;59459;51.172;6.682;2023-12-14T01:12:24;49.80;;;16.47;;
71610;SDS011;59459;51.172;6.682;2023-12-14T01:14:49;53.63;;;15.27;;
71610;SDS011;59459;51.172;6.682;2023-12-14T01:17:14;39.27;;;14.80;;
71610;SDS011;59459;51.172;6.682;2023-12-14T01:19:40;44.77;;;14.40;;
71610;SDS011;59459;51.172;6.682;2023-12-14T01:22:06;41.40;;;13.90;;
71610;SDS011;59459;51.172;6.682;2023-12-14T01:24:31;44.43;;;14.07;;
71610;SDS011;59459;51.172;6.682;2023-12-14T01:26:56;58.23;;;16.50;;
71610;SDS011;59459;51.172;6.682;2023-12-14T01:29:21;45.00;;;14.93;;
71610;SDS011;59459;51.172;6.682;2023-12-14T01:31:46;56.73;;;16.53;;
71610;SDS011;59459;51.172;6.682;2023-12-14T01:34:11;48.57;;;16.07;;
71610;SDS011;59459;51.172;6.682;2023-12-14T01:36:37;47.77;;;15.07;;
71610;SDS011;59459;51.172;6.682;2023-12-14T01:39:02;50.07;;;16.70;;
71610;SDS011;59459;51.172;6.682;2023-12-14T01:41:27;49.47;;;16.23;;
71610;SDS011;59459;51.172;6.682;2023-12-14T01:43:53;49.53;;;17.27;;
71610;SDS011;59459;51.172;6.682;2023-12-14T01:46:18;52.80;;;17.93;;
71610;SDS011;59459;51.172;6.682;2023-12-14T01:48:43;45.03;;;14.60;;
71610;SDS011;59459;51.172;6.682;2023-12-14T01:51:08;43.53;;;14.37;;
71610;SDS011;59459;51.172;6.682;2023-12-14T01:53:34;36.47;;;13.20;;
71610;SDS011;59459;51.172;6.682;2023-12-14T01:55:59;33.40;;;12.77;;
71610;SDS011;59459;51.172;6.682;2023-12-14T01:58:24;33.83;;;11.30;;
71610;SDS011;59459;51.172;6.682;2023-12-14T02:03:22;35.03;;;11.33;;
71610;SDS011;59459;51.172;6.682;2023-12-14T02:05:48;38.30;;;13.23;;
71610;SDS011;59459;51.172;6.682;2023-12-14T02:08:13;37.83;;;13.27;;
71610;SDS011;59459;51.172;6.682;2023-12-14T02:10:38;39.53;;;12.57;;
71610;SDS011;59459;51.172;6.682;2023-12-14T02:13:03;35.37;;;11.57;;
71610;SDS011;59459;51.172;6.682;2023-12-14T02:15:29;36.33;;;11.57;;
71610;SDS011;59459;51.172;6.682;2023-12-14T02:17:54;34.70;;;11.70;;
71610;SDS011;59459;51.172;6.682;2023-12-14T02:20:19;32.63;;;11.13;;
71610;SDS011;59459;51.172;6.682;2023-12-14T02:22:48;35.90;;;12.13;;
71610;SDS011;59459;51.172;6.682;2023-12-14T02:25:15;37.60;;;11.43;;
71610;SDS011;59459;51.172;6.682;2023-12-14T02:27:40;37.50;;;12.07;;
71610;SDS011;59459;51.172;6.682;2023-12-14T02:30:05;43.07;;;11.90;;
71610;SDS011;59459;51.172;6.682;2023-12-14T02:32:31;35.60;;;12.73;;
71610;SDS011;59459;51.172;6.682;2023-12-14T02:34:56;38.60;;;13.77;;
71610;SDS011;59459;51.172;6.682;2023-12-14T02:37:21;36.03;;;12.40;;
71610;SDS011;59459;51.172;6.682;2023-12-14T02:39:46;35.53;;;11.23;;
71610;SDS011;59459;51.172;6.682;2023-12-14T02:42:12;37.55;;;13.32;;
71610;SDS011;59459;51.172;6.682;2023-12-14T02:44:37;36.97;;;11.73;;
71610;SDS011;59459;51.172;6.682;2023-12-14T02:47:02;40.80;;;13.23;;
71610;SDS011;59459;51.172;6.682;2023-12-14T02:49:28;36.97;;;12.33;;
71610;SDS011;59459;51.172;6.682;2023-12-14T02:51:53;39.53;;;12.47;;
71610;SDS011;59459;51.172;6.682;2023-12-14T02:54:18;38.17;;;13.40;;
71610;SDS011;59459;51.172;6.682;2023-12-14T02:56:43;36.33;;;13.30;;
71610;SDS011;59459;51.172;6.682;2023-12-14T02:59:08;39.83;;;13.70;;
71610;SDS011;59459;51.172;6.682;2023-12-14T03:01:34;37.67;;;14.83;;
71610;SDS011;59459;51.172;6.682;2023-12-14T03:03:59;36.10;;;12.57;;
71610;SDS011;59459;51.172;6.682;2023-12-14T03:06:24;49.87;;;15.17;;
71610;SDS011;59459;51.172;6.682;2023-12-14T03:08:49;35.10;;;11.60;;
71610;SDS011;59459;51.172;6.682;2023-12-14T03:11:21;42.00;;;13.80;;
71610;SDS011;59459;51.172;6.682;2023-12-14T03:13:46;37.58;;;12.57;;
71610;SDS011;59459;51.172;6.682;2023-12-14T03:16:11;31.33;;;12.07;;
71610;SDS011;59459;51.172;6.682;2023-12-14T03:18:37;38.30;;;11.87;;
71610;SDS011;59459;51.172;6.682;2023-12-14T03:21:02;38.40;;;13.60;;
71610;SDS011;59459;51.172;6.682;2023-12-14T03:23:27;36.27;;;13.13;;
71610;SDS011;59459;51.172;6.682;2023-12-14T03:25:52;43.07;;;14.33;;
71610;SDS011;59459;51.172;6.682;2023-12-14T03:28:18;44.13;;;12.40;;
71610;SDS011;59459;51.172;6.682;2023-12-14T03:30:43;38.33;;;12.47;;
71610;SDS011;59459;51.172;6.682;2023-12-14T03:33:08;38.80;;;11.63;;
71610;SDS011;59459;51.172;6.682;2023-12-14T03:35:33;37.77;;;12.00;;
71610;SDS011;59459;51.172;6.682;2023-12-14T03:37:59;44.37;;;13.43;;
71610;SDS011;59459;51.172;6.682;2023-12-14T03:40:24;51.10;;;14.73;;
71610;SDS011;59459;51.172;6.682;2023-12-14T03:42:49;42.43;;;13.23;;
71610;SDS011;59459;51.172;6.682;2023-12-14T03:45:14;44.90;;;12.63;;
71610;SDS011;59459;51.172;6.682;2023-12-14T03:47:39;50.83;;;15.37;;
71610;SDS011;59459;51.172;6.682;2023-12-14T03:50:05;45.60;;;15.37;;
71610;SDS011;59459;51.172;6.682;2023-12-14T03:52:30;46.58;;;14.55;;
71610;SDS011;59459;51.172;6.682;2023-12-14T03:54:56;45.63;;;13.70;;
71610;SDS011;59459;51.172;6.682;2023-12-14T03:57:21;40.43;;;13.33;;
71610;SDS011;59459;51.172;6.682;2023-12-14T03:59:46;39.07;;;12.20;;
71610;SDS011;59459;51.172;6.682;2023-12-14T04:02:12;31.73;;;11.43;;
71610;SDS011;59459;51.172;6.682;2023-12-14T04:04:37;36.97;;;11.57;;
71610;SDS011;59459;51.172;6.682;2023-12-14T04:07:03;33.73;;;11.20;;
71610;SDS011;59459;51.172;6.682;2023-12-14T04:09:28;31.10;;;10.03;;
71610;SDS011;59459;51.172;6.682;2023-12-14T04:11:53;35.70;;;10.63;;
71610;SDS011;59459;51.172;6.682;2023-12-14T04:14:18;34.73;;;10.63;;
71610;SDS011;59459;51.172;6.682;2023-12-14T04:16:43;27.43;;;9.63;;
71610;SDS011;59459;51.172;6.682;2023-12-14T04:19:09;36.10;;;10.77;;
71610;SDS011;59459;51.172;6.682;2023-12-14T04:21:35;34.53;;;10.57;;
71610;SDS011;59459;51.172;6.682;2023-12-14T04:24:00;29.13;;;9.90;;
71610;SDS011;59459;51.172;6.682;2023-12-14T04:26:26;30.20;;;11.03;;
71610;SDS011;59459;51.172;6.682;2023-12-14T04:28:52;32.97;;;11.02;;
71610;SDS011;59459;51.172;6.682;2023-12-14T04:31:17;32.10;;;11.77;;
71610;SDS011;59459;51.172;6.682;2023-12-14T04:33:42;37.77;;;10.77;;
71610;SDS011;59459;51.172;6.682;2023-12-14T04:36:07;36.90;;;11.40;;
71610;SDS011;59459;51.172;6.682;2023-12-14T04:38:33;37.20;;;10.50;;
71610;SDS011;59459;51.172;6.682;2023-12-14T04:40:58;33.07;;;10.40;;
71610;SDS011;59459;51.172;6.682;2023-12-14T04:43:23;34.00;;;11.83;;
71610;SDS011;59459;51.172;6.682;2023-12-14T04:45:48;32.53;;;11.33;;
71610;SDS011;59459;51.172;6.682;2023-12-14T04:48:13;36.67;;;10.70;;
71610;SDS011;59459;51.172;6.682;2023-12-14T04:50:39;27.37;;;9.43;;
71610;SDS011;59459;51.172;6.682;2023-12-14T04:53:04;33.27;;;10.70;;
71610;SDS011;59459;51.172;6.682;2023-12-14T04:55:29;33.23;;;10.60;;
71610;SDS011;59459;51.172;6.682;2023-12-14T04:57:54;31.07;;;9.67;;
71610;SDS011;59459;51.172;6.682;2023-12-14T05:00:20;45.17;;;13.03;;
71610;SDS011;59459;51.172;6.682;2023-12-14T05:02:48;36.03;;;10.60;;
71610;SDS011;59459;51.172;6.682;2023-12-14T05:05:13;34.88;;;12.40;;
71610;SDS011;59459;51.172;6.682;2023-12-14T05:07:38;40.37;;;12.47;;
71610;SDS011;59459;51.172;6.682;2023-12-14T05:10:04;41.30;;;12.07;;
71610;SDS011;59459;51.172;6.682;2023-12-14T05:12:29;38.67;;;13.00;;
71610;SDS011;59459;51.172;6.682;2023-12-14T05:14:56;41.05;;;13.32;;
71610;SDS011;59459;51.172;6.682;2023-12-14T05:17:22;50.00;;;14.27;;
71610;SDS011;59459;51.172;6.682;2023-12-14T05:19:47;49.73;;;15.77;;
71610;SDS011;59459;51.172;6.682;2023-12-14T05:22:12;48.10;;;14.93;;
71610;SDS011;59459;51.172;6.682;2023-12-14T05:24:37;48.90;;;14.37;;
71610;SDS011;59459;51.172;6.682;2023-12-14T05:27:03;44.27;;;13.60;;
71610;SDS011;59459;51.172;6.682;2023-12-14T05:29:28;45.90;;;14.57;;
71610;SDS011;59459;51.172;6.682;2023-12-14T05:31:53;55.13;;;14.63;;
71610;SDS011;59459;51.172;6.682;2023-12-14T05:34:18;53.13;;;13.33;;
71610;SDS011;59459;51.172;6.682;2023-12-14T05:36:44;51.67;;;13.87;;
71610;SDS011;59459;51.172;6.682;2023-12-14T05:39:09;51.07;;;14.47;;
71610;SDS011;59459;51.172;6.682;2023-12-14T05:41:39;45.33;;;14.03;;
71610;SDS011;59459;51.172;6.682;2023-12-14T05:44:04;48.88;;;13.00;;
71610;SDS011;59459;51.172;6.682;2023-12-14T05:46:29;49.90;;;13.80;;
71610;SDS011;59459;51.172;6.682;2023-12-14T05:48:54;49.50;;;13.63;;
71610;SDS011;59459;51.172;6.682;2023-12-14T05:51:53;40.87;;;13.00;;
71610;SDS011;59459;51.172;6.682;2023-12-14T05:54:11;43.03;;;12.52;;
71610;SDS011;59459;51.172;6.682;2023-12-14T05:56:36;41.73;;;10.87;;
71610;SDS011;59459;51.172;6.682;2023-12-14T05:59:01;44.47;;;12.80;;
71610;SDS011;59459;51.172;6.682;2023-12-14T06:01:27;44.27;;;14.43;;
71610;SDS011;59459;51.172;6.682;2023-12-14T06:03:52;52.50;;;13.67;;
71610;SDS011;59459;51.172;6.682;2023-12-14T06:06:17;46.43;;;12.93;;
71610;SDS011;59459;51.172;6.682;2023-12-14T06:08:42;45.37;;;13.03;;
71610;SDS011;59459;51.172;6.682;2023-12-14T06:11:08;47.10;;;12.87;;
71610;SDS011;59459;51.172;6.682;2023-12-14T06:13:33;46.85;;;12.38;;
71610;SDS011;59459;51.172;6.682;2023-12-14T06:15:59;42.23;;;13.60;;
71610;SDS011;59459;51.172;6.682;2023-12-14T06:18:24;48.37;;;12.60;;
71610;SDS011;59459;51.172;6.682;2023-12-14T06:20:49;44.47;;;14.17;;
71610;SDS011;59459;51.172;6.682;2023-12-14T06:23:14;40.83;;;12.07;;
71610;SDS011;59459;51.172;6.682;2023-12-14T06:25:40;49.30;;;13.27;;
71610;SDS011;59459;51.172;6.682;2023-12-14T06:28:05;38.73;;;10.17;;
71610;SDS011;59459;51.172;6.682;2023-12-14T06:30:30;51.83;;;14.73;;
71610;SDS011;59459;51.172;6.682;2023-12-14T06:32:55;47.27;;;12.77;;
71610;SDS011;59459;51.172;6.682;2023-12-14T06:35:21;38.88;;;11.60;;
71610;SDS011;59459;51.172;6.682;2023-12-14T06:37:47;43.23;;;12.87;;
71610;SDS011;59459;51.172;6.682;2023-12-14T06:40:12;41.43;;;11.67;;
71610;SDS011;59459;51.172;6.682;2023-12-14T06:42:37;44.83;;;11.40;;
71610;SDS011;59459;51.172;6.682;2023-12-14T06:45:02;37.53;;;11.63;;
71610;SDS011;59459;51.172;6.682;2023-12-14T06:47:28;37.97;;;11.30;;
71610;SDS011;59459;51.172;6.682;2023-12-14T06:49:53;37.10;;;11.57;;
71610;SDS011;59459;51.172;6.682;2023-12-14T06:52:18;41.33;;;12.17;;
71610;SDS011;59459;51.172;6.682;2023-12-14T06:54:46;30.10;;;8.87;;
71610;SDS011;59459;51.172;6.682;2023-12-14T06:57:11;37.22;;;11.98;;
71610;SDS011;59459;51.172;6.682;2023-12-14T06:59:36;37.17;;;11.33;;
71610;SDS011;59459;51.172;6.682;2023-12-14T07:02:02;43.20;;;11.80;;
71610;SDS011;59459;51.172;6.682;2023-12-14T07:04:27;38.30;;;11.30;;
71610;SDS011;59459;51.172;6.682;2023-12-14T07:06:52;30.77;;;10.13;;
71610;SDS011;59459;51.172;6.682;2023-12-14T07:09:18;33.55;;;10.57;;
71610;SDS011;59459;51.172;6.682;2023-12-14T07:11:43;30.83;;;10.63;;
71610;SDS011;59459;51.172;6.682;2023-12-14T07:14:08;32.87;;;10.03;;
71610;SDS011;59459;51.172;6.682;2023-12-14T07:16:33;33.57;;;10.83;;
71610;SDS011;59459;51.172;6.682;2023-12-14T07:18:59;26.80;;;8.27;;
71610;SDS011;59459;51.172;6.682;2023-12-14T07:21:24;30.33;;;9.20;;
71610;SDS011;59459;51.172;6.682;2023-12-14T07:23:49;37.23;;;9.80;;
71610;SDS011;59459;51.172;6.682;2023-12-14T07:26:14;33.20;;;8.60;;
71610;SDS011;59459;51.172;6.682;2023-12-14T07:28:40;31.83;;;9.23;;
71610;SDS011;59459;51.172;6.682;2023-12-14T07:31:05;30.10;;;9.00;;
71610;SDS011;59459;51.172;6.682;2023-12-14T07:33:30;32.03;;;10.23;;
71610;SDS011;59459;51.172;6.682;2023-12-14T07:35:55;31.80;;;8.90;;
71610;SDS011;59459;51.172;6.682;2023-12-14T07:38:21;28.23;;;9.00;;
71610;SDS011;59459;51.172;6.682;2023-12-14T07:40:46;34.80;;;9.43;;
71610;SDS011;59459;51.172;6.682;2023-12-14T07:43:11;34.00;;;10.10;;
71610;SDS011;59459;51.172;6.682;2023-12-14T07:45:37;36.37;;;11.20;;
71610;SDS011;59459;51.172;6.682;2023-12-14T07:48:02;34.03;;;10.87;;
71610;SDS011;59459;51.172;6.682;2023-12-14T07:50:29;33.63;;;9.82;;
71610;SDS011;59459;51.172;6.682;2023-12-14T07:52:54;39.83;;;12.23;;
71610;SDS011;59459;51.172;6.682;2023-12-14T07:55:19;33.57;;;10.00;;
71610;SDS011;59459;51.172;6.682;2023-12-14T07:57:45;36.03;;;10.50;;
71610;SDS011;59459;51.172;6.682;2023-12-14T08:00:10;34.80;;;11.37;;
71610;SDS011;59459;51.172;6.682;2023-12-14T08:02:36;41.67;;;11.47;;
71610;SDS011;59459;51.172;6.682;2023-12-14T08:05:01;38.77;;;10.70;;
71610;SDS011;59459;51.172;6.682;2023-12-14T08:07:26;37.53;;;12.07;;
71610;SDS011;59459;51.172;6.682;2023-12-14T08:09:55;37.88;;;13.00;;
71610;SDS011;59459;51.172;6.682;2023-12-14T08:12:20;40.17;;;12.80;;
71610;SDS011;59459;51.172;6.682;2023-12-14T08:14:46;35.35;;;11.73;;
71610;SDS011;59459;51.172;6.682;2023-12-14T08:17:12;40.53;;;12.37;;
71610;SDS011;59459;51.172;6.682;2023-12-14T08:19:37;34.73;;;10.83;;
71610;SDS011;59459;51.172;6.682;2023-12-14T08:22:02;44.20;;;12.93;;
71610;SDS011;59459;51.172;6.682;2023-12-14T08:24:27;39.93;;;12.40;;
71610;SDS011;59459;51.172;6.682;2023-12-14T08:26:53;37.35;;;11.55;;
71610;SDS011;59459;51.172;6.682;2023-12-14T08:29:18;38.93;;;12.43;;
71610;SDS011;59459;51.172;6.682;2023-12-14T08:31:43;39.17;;;12.40;;
71610;SDS011;59459;51.172;6.682;2023-12-14T08:34:09;35.57;;;11.80;;
71610;SDS011;59459;51.172;6.682;2023-12-14T08:36:34;39.37;;;13.40;;
71610;SDS011;59459;51.172;6.682;2023-12-14T08:38:59;39.53;;;12.70;;
71610;SDS011;59459;51.172;6.682;2023-12-14T08:41:24;38.57;;;11.37;;
71610;SDS011;59459;51.172;6.682;2023-12-14T08:43:50;39.17;;;10.33;;
71610;SDS011;59459;51.172;6.682;2023-12-14T08:46:15;35.87;;;12.13;;
71610;SDS011;59459;51.172;6.682;2023-12-14T08:48:40;40.53;;;11.47;;
71610;SDS011;59459;51.172;6.682;2023-12-14T08:51:05;42.07;;;11.93;;
71610;SDS011;59459;51.172;6.682;2023-12-14T08:53:31;50.97;;;11.73;;
71610;SDS011;59459;51.172;6.682;2023-12-14T08:55:56;35.83;;;12.17;;
71610;SDS011;59459;51.172;6.682;2023-12-14T08:58:21;38.13;;;11.90;;
71610;SDS011;59459;51.172;6.682;2023-12-14T09:00:47;41.40;;;11.63;;
71610;SDS011;59459;51.172;6.682;2023-12-14T09:03:12;37.53;;;11.20;;
71610;SDS011;59459;51.172;6.682;2023-12-14T09:05:37;39.00;;;11.23;;
71610;SDS011;59459;51.172;6.682;2023-12-14T09:08:07;36.03;;;11.52;;
71610;SDS011;59459;51.172;6.682;2023-12-14T09:10:32;33.23;;;11.87;;
71610;SDS011;59459;51.172;6.682;2023-12-14T09:12:58;34.72;;;12.00;;
71610;SDS011;59459;51.172;6.682;2023-12-14T09:15:25;35.03;;;10.23;;
71610;SDS011;59459;51.172;6.682;2023-12-14T09:17:50;36.87;;;11.00;;
71610;SDS011;59459;51.172;6.682;2023-12-14T09:20:15;33.13;;;9.53;;
71610;SDS011;59459;51.172;6.682;2023-12-14T09:22:41;34.70;;;10.70;;
71610;SDS011;59459;51.172;6.682;2023-12-14T09:25:06;34.73;;;9.70;;
71610;SDS011;59459;51.172;6.682;2023-12-14T09:27:32;33.08;;;9.48;;
71610;SDS011;59459;51.172;6.682;2023-12-14T09:29:57;33.40;;;9.63;;
71610;SDS011;59459;51.172;6.682;2023-12-14T09:32:22;29.07;;;9.73;;
71610;SDS011;59459;51.172;6.682;2023-12-14T09:34:48;28.53;;;9.50;;
71610;SDS011;59459;51.172;6.682;2023-12-14T09:37:13;32.97;;;10.97;;
71610;SDS011;59459;51.172;6.682;2023-12-14T09:39:39;30.35;;;8.98;;
71610;SDS011;59459;51.172;6.682;2023-12-14T09:42:05;27.17;;;9.23;;
71610;SDS011;59459;51.172;6.682;2023-12-14T09:44:31;28.83;;;9.73;;
71610;SDS011;59459;51.172;6.682;2023-12-14T09:46:57;32.10;;;9.80;;
71610;SDS011;59459;51.172;6.682;2023-12-14T09:49:24;30.23;;;9.88;;
71610;SDS011;59459;51.172;6.682;2023-12-14T09:51:53;27.92;;;9.27;;
71610;SDS011;59459;51.172;6.682;2023-12-14T09:54:18;24.43;;;8.40;;
71610;SDS011;59459;51.172;6.682;2023-12-14T09:56:47;24.80;;;9.40;;
71610;SDS011;59459;51.172;6.682;2023-12-14T09:59:12;33.07;;;9.43;;
71610;SDS011;59459;51.172;6.682;2023-12-14T10:01:37;24.20;;;8.60;;
71610;SDS011;59459;51.172;6.682;2023-12-14T10:04:12;24.87;;;7.80;;
71610;SDS011;59459;51.172;6.682;2023-12-14T10:06:38;27.10;;;8.68;;
71610;SDS011;59459;51.172;6.682;2023-12-14T10:09:04;27.40;;;9.30;;
71610;SDS011;59459;51.172;6.682;2023-12-14T10:11:34;30.27;;;8.82;;
71610;SDS011;59459;51.172;6.682;2023-12-14T10:14:00;28.67;;;8.93;;
71610;SDS011;59459;51.172;6.682;2023-12-14T10:16:26;29.83;;;9.53;;
71610;SDS011;59459;51.172;6.682;2023-12-14T10:18:51;27.92;;;9.55;;
71610;SDS011;59459;51.172;6.682;2023-12-14T10:21:16;28.97;;;9.27;;
71610;SDS011;59459;51.172;6.682;2023-12-14T10:23:42;26.23;;;8.10;;
71610;SDS011;59459;51.172;6.682;2023-12-14T10:26:11;25.58;;;9.00;;
71610;SDS011;59459;51.172;6.682;2023-12-14T10:28:36;27.07;;;9.53;;
71610;SDS011;59459;51.172;6.682;2023-12-14T10:31:04;28.50;;;9.00;;
71610;SDS011;59459;51.172;6.682;2023-12-14T10:33:30;25.35;;;7.75;;
71610;SDS011;59459;51.172;6.682;2023-12-14T10:35:55;30.03;;;9.53;;
71610;SDS011;59459;51.172;6.682;2023-12-14T10:38:21;31.58;;;10.15;;
71610;SDS011;59459;51.172;6.682;2023-12-14T10:40:46;29.50;;;9.93;;
71610;SDS011;59459;51.172;6.682;2023-12-14T10:43:12;28.75;;;9.05;;
71610;SDS011;59459;51.172;6.682;2023-12-14T10:45:38;30.63;;;9.93;;
71610;SDS011;59459;51.172;6.682;2023-12-14T10:48:04;29.92;;;9.85;;
71610;SDS011;59459;51.172;6.682;2023-12-14T10:50:30;29.60;;;10.27;;
71610;SDS011;59459;51.172;6.682;2023-12-14T10:52:56;24.95;;;8.45;;
71610;SDS011;59459;51.172;6.682;2023-12-14T10:57:51;28.02;;;9.75;;
71610;SDS011;59459;51.172;6.682;2023-12-14T11:00:17;23.70;;;8.00;;
71610;SDS011;59459;51.172;6.682;2023-12-14T11:02:45;25.40;;;7.65;;
71610;SDS011;59459;51.172;6.682;2023-12-14T11:05:14;25.45;;;8.63;;
71610;SDS011;59459;51.172;6.682;2023-12-14T11:10:09;24.33;;;7.67;;
71610;SDS011;59459;51.172;6.682;2023-12-14T11:12:36;23.95;;;7.93;;
71610;SDS011;59459;51.172;6.682;2023-12-14T11:15:01;21.17;;;7.13;;
71610;SDS011;59459;51.172;6.682;2023-12-14T11:17:28;19.83;;;6.72;;
71610;SDS011;59459;51.172;6.682;2023-12-14T11:19:54;24.75;;;8.82;;
71610;SDS011;59459;51.172;6.682;2023-12-14T11:22:23;19.43;;;8.03;;
71610;SDS011;59459;51.172;6.682;2023-12-14T11:24:52;23.05;;;7.70;;
71610;SDS011;59459;51.172;6.682;2023-12-14T11:27:19;25.07;;;7.50;;
71610;SDS011;59459;51.172;6.682;2023-12-14T11:29:45;26.40;;;8.15;;
71610;SDS011;59459;51.172;6.682;2023-12-14T11:32:10;21.90;;;7.25;;
71610;SDS011;59459;51.172;6.682;2023-12-14T11:34:38;22.50;;;7.13;;
71610;SDS011;59459;51.172;6.682;2023-12-14T11:37:03;21.48;;;7.82;;
71610;SDS011;59459;51.172;6.682;2023-12-14T11:39:31;20.20;;;6.95;;
71610;SDS011;59459;51.172;6.682;2023-12-14T11:42:03;22.30;;;8.27;;
71610;SDS011;59459;51.172;6.682;2023-12-14T11:44:28;24.17;;;7.57;;
71610;SDS011;59459;51.172;6.682;2023-12-14T11:46:55;21.20;;;6.88;;
71610;SDS011;59459;51.172;6.682;2023-12-14T11:49:21;21.37;;;7.90;;
71610;SDS011;59459;51.172;6.682;2023-12-14T11:51:46;22.03;;;6.53;;
71610;SDS011;59459;51.172;6.682;2023-12-14T11:54:12;20.30;;;6.47;;
71610;SDS011;59459;51.172;6.682;2023-12-14T11:56:38;23.00;;;6.43;;
71610;SDS011;59459;51.172;6.682;2023-12-14T11:59:03;21.50;;;5.80;;
71610;SDS011;59459;51.172;6.682;2023-12-14T12:01:29;17.58;;;5.82;;
71610;SDS011;59459;51.172;6.682;2023-12-14T12:03:56;20.17;;;6.15;;
71610;SDS011;59459;51.172;6.682;2023-12-14T12:06:22;20.20;;;6.17;;
71610;SDS011;59459;51.172;6.682;2023-12-14T12:08:48;19.88;;;5.20;;
71610;SDS011;59459;51.172;6.682;2023-12-14T12:11:23;18.10;;;5.20;;
71610;SDS011;59459;51.172;6.682;2023-12-14T12:13:53;17.15;;;5.32;;
71610;SDS011;59459;51.172;6.682;2023-12-14T12:16:19;18.80;;;5.23;;
71610;SDS011;59459;51.172;6.682;2023-12-14T12:18:44;15.97;;;5.60;;
71610;SDS011;59459;51.172;6.682;2023-12-14T12:21:10;16.07;;;5.23;;
71610;SDS011;59459;51.172;6.682;2023-12-14T12:23:36;18.13;;;6.22;;
71610;SDS011;59459;51.172;6.682;2023-12-14T12:26:01;15.60;;;5.83;;
71610;SDS011;59459;51.172;6.682;2023-12-14T12:28:26;19.93;;;6.37;;
71610;SDS011;59459;51.172;6.682;2023-12-14T12:30:52;15.02;;;5.57;;
71610;SDS011;59459;51.172;6.682;2023-12-14T12:33:18;13.90;;;5.97;;
71610;SDS011;59459;51.172;6.682;2023-12-14T12:35:43;15.05;;;5.20;;
71610;SDS011;59459;51.172;6.682;2023-12-14T12:38:08;15.77;;;4.87;;
71610;SDS011;59459;51.172;6.682;2023-12-14T12:40:33;15.10;;;4.67;;
71610;SDS011;59459;51.172;6.682;2023-12-14T12:42:59;18.00;;;4.73;;
71610;SDS011;59459;51.172;6.682;2023-12-14T12:45:24;15.37;;;5.13;;
71610;SDS011;59459;51.172;6.682;2023-12-14T12:47:52;18.90;;;6.22;;
71610;SDS011;59459;51.172;6.682;2023-12-14T12:50:18;14.83;;;4.50;;
71610;SDS011;59459;51.172;6.682;2023-12-14T12:52:43;11.77;;;3.53;;
71610;SDS011;59459;51.172;6.682;2023-12-14T12:55:10;15.10;;;4.78;;
71610;SDS011;59459;51.172;6.682;2023-12-14T12:57:36;13.87;;;4.23;;
71610;SDS011;59459;51.172;6.682;2023-12-14T13:00:01;16.57;;;4.87;;
71610;SDS011;59459;51.172;6.682;2023-12-14T13:02:29;13.07;;;4.78;;
71610;SDS011;59459;51.172;6.682;2023-12-14T13:04:54;14.10;;;4.70;;
71610;SDS011;59459;51.172;6.682;2023-12-14T13:07:19;14.53;;;4.63;;
71610;SDS011;59459;51.172;6.682;2023-12-14T13:09:44;12.77;;;4.20;;
71610;SDS011;59459;51.172;6.682;2023-12-14T13:12:10;16.13;;;5.40;;
71610;SDS011;59459;51.172;6.682;2023-12-14T13:14:35;16.52;;;5.65;;
71610;SDS011;59459;51.172;6.682;2023-12-14T13:17:01;17.20;;;4.50;;
71610;SDS011;59459;51.172;6.682;2023-12-14T13:19:26;13.03;;;4.93;;
71610;SDS011;59459;51.172;6.682;2023-12-14T13:21:52;14.52;;;3.60;;
71610;SDS011;59459;51.172;6.682;2023-12-14T13:24:17;12.10;;;4.20;;
71610;SDS011;59459;51.172;6.682;2023-12-14T13:26:43;12.57;;;3.87;;
71610;SDS011;59459;51.172;6.682;2023-12-14T13:29:08;12.97;;;3.97;;
71610;SDS011;59459;51.172;6.682;2023-12-14T13:31:33;15.37;;;3.57;;
71610;SDS011;59459;51.172;6.682;2023-12-14T13:33:58;17.73;;;4.37;;
71610;SDS011;59459;51.172;6.682;2023-12-14T13:36:23;16.67;;;4.77;;
71610;SDS011;59459;51.172;6.682;2023-12-14T13:38:49;12.57;;;3.20;;
71610;SDS011;59459;51.172;6.682;2023-12-14T13:41:14;11.07;;;4.20;;
71610;SDS011;59459;51.172;6.682;2023-12-14T13:43:39;12.20;;;4.53;;
71610;SDS011;59459;51.172;6.682;2023-12-14T13:46:04;15.17;;;4.43;;
71610;SDS011;59459;51.172;6.682;2023-12-14T13:48:29;14.07;;;4.50;;
71610;SDS011;59459;51.172;6.682;2023-12-14T13:50:55;15.37;;;4.10;;
71610;SDS011;59459;51.172;6.682;2023-12-14T13:53:21;12.55;;;4.28;;
71610;SDS011;59459;51.172;6.682;2023-12-14T13:55:46;14.33;;;4.40;;
71610;SDS011;59459;51.172;6.682;2023-12-14T13:58:13;16.20;;;4.60;;
71610;SDS011;59459;51.172;6.682;2023-12-14T14:00:38;11.53;;;3.70;;
71610;SDS011;59459;51.172;6.682;2023-12-14T14:03:04;14.63;;;5.07;;
71610;SDS011;59459;51.172;6.682;2023-12-14T14:05:30;12.83;;;4.47;;
71610;SDS011;59459;51.172;6.682;2023-12-14T14:07:55;11.75;;;3.85;;
71610;SDS011;59459;51.172;6.682;2023-12-14T14:10:20;13.63;;;3.77;;
71610;SDS011;59459;51.172;6.682;2023-12-14T14:12:46;13.07;;;4.70;;
71610;SDS011;59459;51.172;6.682;2023-12-14T14:15:11;16.10;;;4.20;;
71610;SDS011;59459;51.172;6.682;2023-12-14T14:17:36;12.30;;;3.63;;
71610;SDS011;59459;51.172;6.682;2023-12-14T14:20:02;15.43;;;4.60;;
71610;SDS011;59459;51.172;6.682;2023-12-14T14:22:27;11.80;;;3.80;;
71610;SDS011;59459;51.172;6.682;2023-12-14T14:24:53;12.30;;;4.63;;